Eiho Maru No.1 — JD4169 — position and weather

sailwx.info

Track history (hours):
 
Tides and Currents Weather Stations Pressure Air Temp Water Temp Dewpoint Dewpoint Depression Visibility Wind Speed Wind Dir Waves Ship Positions

Eiho Maru No.1

Last reported at 2018-Jul-18 05:52 UTC. Time now 2018-Jul-18 10:27 UTC.
Position N 34°42' E 134°36'.

Length 65 m; draft 3.4 m.

Type: Tanker. MMSI: 431009376.

Date/timePositionNaut miles runAvg speedWind from/ knotsBaromVisibWave heightAir tempDewpointWater temp
2018-Jul-18 05:52N 34°42' E 134°36'612.2
2018-Jul-18 05:23N 34°43' E 134°44'4 9.9
2018-Jul-18 05:00N 34°44' E 134°48'0 0.0
2018-Jul-18 03:35N 34°44' E 134°48'0 0.0
2018-Jul-18 03:15N 34°44' E 134°48'0 0.0
2018-Jul-18 03:00N 34°44' E 134°48'  
2018-Jul-13 09:49N 34°28' E 134°28'413.3
2018-Jul-13 09:30N 34°29' E 134°33'612.5
2018-Jul-13 09:00N 34°32' E 134°40'712.9
2018-Jul-13 08:30N 34°34' E 134°47'713.2
2018-Jul-13 07:58N 34°36' E 134°55'611.5
2018-Jul-13 07:29N 34°37' E 135°02'510.7
2018-Jul-13 07:00N 34°36' E 135°08'611.8
2018-Jul-13 06:30N 34°37' E 135°15'611.9
2018-Jul-13 06:00N 34°40' E 135°22'3 5.7
2018-Jul-13 05:30N 34°40' E 135°25'0 0.0
2018-Jul-13 04:58N 34°40' E 135°25'0 0.0
2018-Jul-13 04:30N 34°40' E 135°25'0 0.0
2018-Jul-13 04:01N 34°40' E 135°25'2 3.5
2018-Jul-13 03:30N 34°40' E 135°23'0 0.8
2018-Jul-13 03:00N 34°40' E 135°23'0 0.0
2018-Jul-13 02:30N 34°40' E 135°23'2 4.4
2018-Jul-13 02:00N 34°39' E 135°25'0 0.0
2018-Jul-13 01:16N 34°39' E 135°25'0 0.0
2018-Jul-13 00:52N 34°39' E 135°25'0 0.0
2018-Jul-13 00:27N 34°39' E 135°25'0 0.0
2018-Jul-12 23:59N 34°39' E 135°25'1 1.1
2018-Jul-12 23:30N 34°40' E 135°25'2 4.5
2018-Jul-12 23:00N 34°40' E 135°22'0 0.6
2018-Jul-12 22:30N 34°40' E 135°22'0 0.0
2018-Jul-12 22:00N 34°40' E 135°22'1 1.4
2018-Jul-12 21:30N 34°39' E 135°21'611.2
2018-Jul-12 21:00N 34°37' E 135°15'611.2
2018-Jul-12 20:30N 34°36' E 135°08'611.7
2018-Jul-12 20:00N 34°37' E 135°01'811.8
2018-Jul-12 19:18N 34°34' E 134°52'412.2
2018-Jul-12 18:57N 34°32' E 134°47'811.8
2018-Jul-12 18:17N 34°29' E 134°38'312.0
2018-Jul-12 18:00N 34°28' E 134°35'611.6
2018-Jul-12 17:31N 34°25' E 134°28'  
Track history (hours):
 
Tides and Currents Weather Stations Pressure Air Temp Water Temp Dewpoint Dewpoint Depression Visibility Wind Speed Wind Dir Waves Ship Positions

Eiho Maru No.1

Last reported at 2018-Jul-18 05:52 UTC. Time now 2018-Jul-18 10:27 UTC.
Position N 34°42' E 134°36'.

Length 65 m; draft 3.4 m.

Type: Tanker. MMSI: 431009376.

Date/timePositionNaut miles runAvg speedWind from/ knotsBaromVisibWave heightAir tempDewpointWater temp
2018-Jul-18 05:52N 34°42' E 134°36'612.2
2018-Jul-18 05:23N 34°43' E 134°44'4 9.9
2018-Jul-18 05:00N 34°44' E 134°48'0 0.0
2018-Jul-18 03:35N 34°44' E 134°48'0 0.0
2018-Jul-18 03:15N 34°44' E 134°48'0 0.0
2018-Jul-18 03:00N 34°44' E 134°48'  
2018-Jul-13 09:49N 34°28' E 134°28'413.3
2018-Jul-13 09:30N 34°29' E 134°33'612.5
2018-Jul-13 09:00N 34°32' E 134°40'712.9
2018-Jul-13 08:30N 34°34' E 134°47'713.2
2018-Jul-13 07:58N 34°36' E 134°55'611.5
2018-Jul-13 07:29N 34°37' E 135°02'510.7
2018-Jul-13 07:00N 34°36' E 135°08'611.8
2018-Jul-13 06:30N 34°37' E 135°15'611.9
2018-Jul-13 06:00N 34°40' E 135°22'3 5.7
2018-Jul-13 05:30N 34°40' E 135°25'0 0.0
2018-Jul-13 04:58N 34°40' E 135°25'0 0.0
2018-Jul-13 04:30N 34°40' E 135°25'0 0.0
2018-Jul-13 04:01N 34°40' E 135°25'2 3.5
2018-Jul-13 03:30N 34°40' E 135°23'0 0.8
2018-Jul-13 03:00N 34°40' E 135°23'0 0.0
2018-Jul-13 02:30N 34°40' E 135°23'2 4.4
2018-Jul-13 02:00N 34°39' E 135°25'0 0.0
2018-Jul-13 01:16N 34°39' E 135°25'0 0.0
2018-Jul-13 00:52N 34°39' E 135°25'0 0.0
2018-Jul-13 00:27N 34°39' E 135°25'0 0.0
2018-Jul-12 23:59N 34°39' E 135°25'1 1.1
2018-Jul-12 23:30N 34°40' E 135°25'2 4.5
2018-Jul-12 23:00N 34°40' E 135°22'0 0.6
2018-Jul-12 22:30N 34°40' E 135°22'0 0.0
2018-Jul-12 22:00N 34°40' E 135°22'1 1.4
2018-Jul-12 21:30N 34°39' E 135°21'611.2
2018-Jul-12 21:00N 34°37' E 135°15'611.2
2018-Jul-12 20:30N 34°36' E 135°08'611.7
2018-Jul-12 20:00N 34°37' E 135°01'811.8
2018-Jul-12 19:18N 34°34' E 134°52'412.2
2018-Jul-12 18:57N 34°32' E 134°47'811.8
2018-Jul-12 18:17N 34°29' E 134°38'312.0
2018-Jul-12 18:00N 34°28' E 134°35'611.6
2018-Jul-12 17:31N 34°25' E 134°28'  

Dump ship's entire track history